createdAt,value
2023-02-05T00:00:10.106Z,30.30
2023-02-05T00:01:10.170Z,30.30
2023-02-05T00:02:10.322Z,30.30
2023-02-05T03:12:17.416Z,29.70
2023-02-05T03:13:17.426Z,29.69
2023-02-05T03:15:17.466Z,29.70
2023-02-05T03:16:17.509Z,29.70
2023-02-05T03:17:17.495Z,29.70
2023-02-05T03:18:17.515Z,29.69
2023-02-05T03:19:17.530Z,29.68
2023-02-05T03:20:17.525Z,29.67
2023-02-05T03:21:17.632Z,29.68
2023-02-05T03:22:17.558Z,29.66
2023-02-05T03:23:17.576Z,29.67
2023-02-05T03:24:17.596Z,29.66
2023-02-05T03:25:17.594Z,29.62
2023-02-05T03:26:17.605Z,29.64
2023-02-05T03:27:17.664Z,29.68
2023-02-05T03:28:17.625Z,29.65
2023-02-05T03:29:17.640Z,29.67
2023-02-05T03:30:17.632Z,29.67
2023-02-05T03:31:17.684Z,29.66
2023-02-05T03:32:17.657Z,29.65
2023-02-05T03:33:17.763Z,29.63
2023-02-05T03:34:17.710Z,29.64
2023-02-05T03:35:17.706Z,29.62
2023-02-05T03:36:17.721Z,29.62
2023-02-05T03:37:17.746Z,29.63
2023-02-05T03:38:17.778Z,29.62
2023-02-05T03:39:17.794Z,29.62
2023-02-05T03:40:17.814Z,29.62
2023-02-05T03:41:17.821Z,29.63
2023-02-05T03:42:17.855Z,29.60
2023-02-05T03:43:17.874Z,29.60
2023-02-05T03:44:18.404Z,29.61
2023-02-05T03:45:17.909Z,29.58
2023-02-05T03:46:17.911Z,29.58
2023-02-05T03:47:17.928Z,29.60
2023-02-05T03:48:17.934Z,29.59
2023-02-05T03:49:18.890Z,29.59
2023-02-05T03:50:17.944Z,29.56
2023-02-05T03:51:17.963Z,29.58
2023-02-05T03:52:17.956Z,29.57
2023-02-05T03:53:18.041Z,29.56
2023-02-05T04:02:18.195Z,29.53
2023-02-05T04:05:18.092Z,29.54
2023-02-05T04:06:18.103Z,29.52
2023-02-05T04:07:18.105Z,29.51
2023-02-05T04:08:18.114Z,29.53
2023-02-05T04:09:18.136Z,29.52
2023-02-05T04:10:18.146Z,29.51
2023-02-05T04:11:18.184Z,29.49
2023-02-05T04:12:18.170Z,29.51
2023-02-05T04:13:18.182Z,29.52
2023-02-05T04:14:18.199Z,29.49
2023-02-05T04:15:18.206Z,29.50
2023-02-05T04:16:18.265Z,29.51
2023-02-05T04:17:18.233Z,29.51
2023-02-05T04:18:18.246Z,29.53
2023-02-05T04:19:18.246Z,29.53
2023-02-05T04:20:18.326Z,29.53
2023-02-05T04:21:18.290Z,29.51
2023-02-05T04:22:18.299Z,29.51
2023-02-05T04:23:18.295Z,29.50
2023-02-05T04:24:18.324Z,29.51
2023-02-05T04:25:18.327Z,29.52
2023-02-05T04:26:18.319Z,29.50
2023-02-05T04:27:18.423Z,29.52
2023-02-05T04:28:18.464Z,29.53
2023-02-05T04:29:18.346Z,29.49
2023-02-05T04:30:18.374Z,29.49
2023-02-05T04:31:18.427Z,29.51
2023-02-05T04:32:18.398Z,29.50
2023-02-05T04:33:18.390Z,29.49
2023-02-05T04:34:18.423Z,29.50
2023-02-05T04:35:18.431Z,29.48
2023-02-05T04:36:18.454Z,29.47
2023-02-05T04:37:18.485Z,29.49
2023-02-05T04:38:18.492Z,29.46
2023-02-05T04:39:18.526Z,29.47
2023-02-05T04:40:18.539Z,29.45
2023-02-05T04:41:18.543Z,29.45
2023-02-05T04:42:18.551Z,29.47
2023-02-05T04:43:18.562Z,29.46
2023-02-05T04:44:18.592Z,29.46
2023-02-05T04:45:18.581Z,29.47
2023-02-05T04:46:18.607Z,29.47
2023-02-05T04:47:18.583Z,29.45
2023-02-05T04:48:18.594Z,29.44
2023-02-05T04:49:18.608Z,29.43
2023-02-05T04:50:18.624Z,29.44
2023-02-05T04:51:18.639Z,29.45
2023-02-05T04:52:18.655Z,29.45
2023-02-05T04:53:18.674Z,29.44
2023-02-05T04:54:18.692Z,29.44
2023-02-05T04:55:18.712Z,29.42
2023-02-05T04:56:18.730Z,29.42
2023-02-05T04:57:18.753Z,29.42
2023-02-05T04:58:18.830Z,29.42
2023-02-05T04:59:18.808Z,29.41
2023-02-05T05:00:18.816Z,29.41
2023-02-05T05:01:18.891Z,29.41
2023-02-05T05:02:18.892Z,29.43
2023-02-05T05:03:18.836Z,29.42
2023-02-05T05:04:18.865Z,29.43
2023-02-05T05:05:18.885Z,29.40
2023-02-05T05:06:18.903Z,29.42
2023-02-05T05:07:18.934Z,29.41
2023-02-05T05:08:18.952Z,29.40
2023-02-05T05:09:18.982Z,29.40
2023-02-05T05:10:19.080Z,29.40
2023-02-05T05:11:19.038Z,29.40
2023-02-05T05:12:19.052Z,29.40
2023-02-05T05:13:19.088Z,29.39
2023-02-05T05:14:19.114Z,29.36
2023-02-05T05:15:19.141Z,29.37
2023-02-05T05:16:19.268Z,29.37
2023-02-05T05:17:19.195Z,29.37
2023-02-05T05:18:19.218Z,29.38
2023-02-05T05:19:19.216Z,29.37
2023-02-05T05:20:19.224Z,29.38
2023-02-05T05:21:19.249Z,29.38
2023-02-05T05:22:19.264Z,29.37
2023-02-05T05:23:19.305Z,29.37
2023-02-05T05:24:19.342Z,29.36
2023-02-05T05:25:19.348Z,29.38
2023-02-05T05:26:19.409Z,29.37
2023-02-05T05:27:19.441Z,29.37
2023-02-05T05:28:19.489Z,29.36
2023-02-05T05:29:19.527Z,29.37
2023-02-05T05:30:19.567Z,29.37
2023-02-05T05:31:19.859Z,29.36
2023-02-05T05:32:19.694Z,29.35
2023-02-05T05:33:19.670Z,29.37
2023-02-05T05:34:19.728Z,29.36
2023-02-05T05:35:19.732Z,29.35
2023-02-05T05:36:19.729Z,29.36
2023-02-05T05:37:19.764Z,29.36
2023-02-05T05:38:20.426Z,29.35
2023-02-05T05:39:19.798Z,29.35
2023-02-05T05:40:19.851Z,29.36
2023-02-05T05:41:19.886Z,29.34
2023-02-05T05:42:19.892Z,29.34
2023-02-05T05:43:19.939Z,29.33
2023-02-05T05:44:19.991Z,29.34
2023-02-05T05:45:20.040Z,29.32
2023-02-05T05:46:20.155Z,29.34
2023-02-05T05:47:20.154Z,29.32
2023-02-05T05:48:20.178Z,29.30
2023-02-05T05:49:20.277Z,29.32
2023-02-05T05:50:20.248Z,29.31
2023-02-05T05:51:20.282Z,29.30
2023-02-05T05:52:20.306Z,29.30
2023-02-05T05:53:20.342Z,29.34
2023-02-05T05:54:20.353Z,29.31
2023-02-05T05:55:20.391Z,29.29
2023-02-05T05:56:20.409Z,29.29
2023-02-05T05:57:20.425Z,29.30
2023-02-05T05:58:20.482Z,29.29
2023-02-05T05:59:20.595Z,29.29
2023-02-05T06:00:20.537Z,29.29
2023-02-05T06:01:20.570Z,29.30
2023-02-05T06:02:20.741Z,29.28
2023-02-05T06:03:20.629Z,29.29
2023-02-05T06:04:20.686Z,29.31
2023-02-05T06:05:21.478Z,29.29
2023-02-05T06:06:20.769Z,29.28
2023-02-05T06:07:21.450Z,29.29
2023-02-05T06:08:20.854Z,29.28
2023-02-05T06:09:20.862Z,29.29
2023-02-05T06:10:20.905Z,29.30
2023-02-05T06:11:20.938Z,29.29
2023-02-05T06:12:20.956Z,29.27
2023-02-05T06:13:20.979Z,29.28
2023-02-05T06:14:20.994Z,29.27
2023-02-05T06:15:21.007Z,29.24
2023-02-05T06:16:21.070Z,29.27
2023-02-05T06:17:21.014Z,29.26
2023-02-05T06:18:23.393Z,29.27
2023-02-05T06:19:21.062Z,29.26
2023-02-05T06:20:21.125Z,29.26
2023-02-05T06:21:21.071Z,29.25
2023-02-05T06:22:21.081Z,29.24
2023-02-05T06:23:21.103Z,29.26
2023-02-05T06:24:21.104Z,29.25
2023-02-05T06:25:21.114Z,29.24
2023-02-05T06:26:21.118Z,29.24
2023-02-05T06:27:21.123Z,29.24
2023-02-05T06:28:21.143Z,29.24
2023-02-05T06:29:21.147Z,29.23
2023-02-05T06:30:21.178Z,29.21
2023-02-05T06:31:21.255Z,29.22
2023-02-05T06:32:21.156Z,29.22
2023-02-05T06:33:21.175Z,29.20
2023-02-05T06:34:21.167Z,29.21
2023-02-05T06:35:21.177Z,29.21
2023-02-05T06:36:21.175Z,29.21
2023-02-05T06:37:22.528Z,29.18
2023-02-05T06:38:21.468Z,29.21
2023-02-05T08:02:22.714Z,28.99
2023-02-05T08:03:23.411Z,28.98
2023-02-05T08:04:22.813Z,28.97
2023-02-05T08:05:22.730Z,28.97
2023-02-05T08:06:22.766Z,28.99
2023-02-05T08:07:22.798Z,28.97
2023-02-05T08:08:22.816Z,28.97
2023-02-05T08:09:22.903Z,28.96
2023-02-05T08:10:22.884Z,28.98
2023-02-05T08:11:22.895Z,28.95
2023-02-05T08:12:22.965Z,28.95
2023-02-05T08:13:23.021Z,28.97
2023-02-05T08:14:23.068Z,28.96
2023-02-05T08:15:23.103Z,28.98
2023-02-05T08:16:23.116Z,28.96
2023-02-05T08:18:23.162Z,28.96
2023-02-05T08:19:23.249Z,28.95
2023-02-05T08:20:23.228Z,28.99
2023-02-05T08:21:23.244Z,28.96
2023-02-05T08:22:23.290Z,28.95
2023-02-05T08:23:23.260Z,28.97
2023-02-05T08:24:23.272Z,28.95
2023-02-05T08:25:23.287Z,28.95
2023-02-05T08:26:23.286Z,28.97
2023-02-05T08:27:23.288Z,28.95
2023-02-05T08:28:23.288Z,28.96
2023-02-05T08:29:23.285Z,28.95
2023-02-05T08:30:23.334Z,28.95
2023-02-05T08:31:23.367Z,28.94
2023-02-05T08:32:23.331Z,28.95
2023-02-05T08:33:23.350Z,28.95
2023-02-05T08:34:23.344Z,28.94
2023-02-05T08:35:23.385Z,28.93
2023-02-05T08:36:23.421Z,28.93
2023-02-05T08:37:23.491Z,28.94
2023-02-05T08:38:23.435Z,28.93
2023-02-05T08:39:23.524Z,28.95
2023-02-05T11:48:28.121Z,29.02
2023-02-05T11:49:28.148Z,29.02
2023-02-05T11:50:28.208Z,29.02
2023-02-05T11:51:28.225Z,29.00
2023-02-05T11:52:28.272Z,29.02
2023-02-05T11:53:28.314Z,29.02
2023-02-05T11:54:28.354Z,29.04
2023-02-05T11:55:28.386Z,29.01
2023-02-05T11:56:28.428Z,29.01
2023-02-05T11:57:28.471Z,29.00
2023-02-05T11:58:36.651Z,29.00
2023-02-05T11:59:29.510Z,29.01
2023-02-05T12:00:28.509Z,29.01
2023-02-05T12:01:28.499Z,29.01
2023-02-05T12:02:28.596Z,29.00
2023-02-05T12:03:28.505Z,28.99
2023-02-05T12:04:28.504Z,28.97
2023-02-05T12:05:28.509Z,28.99
2023-02-05T12:06:28.498Z,28.97
2023-02-05T12:07:28.489Z,28.97
2023-02-05T12:08:28.492Z,28.96
2023-02-05T12:09:28.509Z,28.97
2023-02-05T12:10:28.485Z,28.97
2023-02-05T12:11:28.501Z,28.97
2023-02-05T12:12:28.526Z,28.96
2023-02-05T12:13:28.548Z,28.97
2023-02-05T12:14:29.080Z,28.97
2023-02-05T12:15:28.626Z,28.95
2023-02-05T12:16:28.685Z,28.97
2023-02-05T12:17:29.579Z,28.95
2023-02-05T12:18:28.739Z,28.95
2023-02-05T12:19:30.779Z,28.98
2023-02-05T12:20:28.803Z,28.95
2023-02-05T12:21:28.840Z,28.96
2023-02-05T12:22:28.895Z,28.96
2023-02-05T12:23:28.927Z,28.97
2023-02-05T12:24:28.976Z,28.96
2023-02-05T12:25:29.011Z,28.94
2023-02-05T12:26:29.053Z,28.95
2023-02-05T12:27:29.092Z,28.95
2023-02-05T12:28:29.126Z,28.95
2023-02-05T12:29:29.183Z,28.94
2023-02-05T12:30:29.237Z,28.93
2023-02-05T15:05:38.631Z,28.72
2023-02-05T15:08:38.135Z,28.76
2023-02-05T15:09:38.284Z,28.73
2023-02-05T15:10:38.278Z,28.73
2023-02-05T15:11:38.337Z,28.74
2023-02-05T15:12:38.408Z,28.73
2023-02-05T15:13:38.489Z,28.72
2023-02-05T15:14:38.543Z,28.71
2023-02-05T15:15:39.179Z,28.71
2023-02-05T15:16:38.668Z,28.72
2023-02-05T15:17:38.734Z,28.70
2023-02-05T15:18:38.866Z,28.71
2023-02-05T15:19:38.848Z,28.71
2023-02-05T15:20:38.923Z,28.72
2023-02-05T15:21:38.983Z,28.70
2023-02-05T15:22:39.046Z,28.70
2023-02-05T15:23:39.109Z,28.72
2023-02-05T15:24:39.180Z,28.70
2023-02-05T15:25:39.255Z,28.71
2023-02-05T15:26:39.319Z,28.70
2023-02-05T15:27:39.389Z,28.69
2023-02-05T15:28:39.466Z,28.71
2023-02-05T15:29:39.522Z,28.72
2023-02-05T18:41:48.123Z,28.66
2023-02-05T18:42:48.177Z,28.68
2023-02-05T18:43:48.208Z,28.66
2023-02-05T18:44:48.267Z,28.67
2023-02-05T18:46:48.378Z,28.66
2023-02-05T18:47:48.450Z,28.68
2023-02-05T18:48:48.507Z,28.65
2023-02-05T18:49:48.576Z,28.66
2023-02-05T18:50:48.621Z,28.66
2023-02-05T18:51:48.690Z,28.68
2023-02-05T18:52:48.740Z,28.65
2023-02-05T18:54:48.830Z,28.65
2023-02-05T18:55:48.867Z,28.68
2023-02-05T18:56:48.971Z,28.65
2023-02-05T18:57:48.951Z,28.67
2023-02-05T18:58:48.960Z,28.68
2023-02-05T18:59:48.982Z,28.67
2023-02-05T19:00:49.003Z,28.65
2023-02-05T19:01:49.019Z,28.68
2023-02-05T19:02:49.033Z,28.65
2023-02-05T19:03:49.039Z,28.67
2023-02-05T19:04:49.033Z,28.67
2023-02-05T19:05:49.056Z,28.67
2023-02-05T19:06:49.084Z,28.66
2023-02-05T19:07:49.080Z,28.69
2023-02-05T19:08:49.088Z,28.67
2023-02-05T19:09:49.140Z,28.67
